Time;durP1;ratioP1;P1;durP2;ratioP2;P2;SDS_P1;SDS_P2;PMS_P1;PMS_P2;Temp;Humidity;BMP_temperature;BMP_pressure;BME280_temperature;BME280_humidity;BME280_pressure;Samples;Min_cycle;Max_cycle;Signal;HPM_P1;HPM_P2
2022/09/02 00:00:16;;;;;;;;;;;21.10;54.00;;;;;;4974391;28;19957;-62
2022/09/02 00:02:42;;;;;;;;;;;21.10;54.10;;;;;;4974656;28;19914;-61
2022/09/02 00:05:07;;;;;;;;;;;21.10;54.30;;;;;;4974484;28;19910;-63
2022/09/02 00:07:33;;;;;;;;;;;21.00;54.50;;;;;;4974572;28;20285;-62
2022/09/02 00:09:59;;;;;;;;;;;21.00;54.50;;;;;;4974347;28;19929;-63
2022/09/02 00:12:25;;;;;;;;;;;20.90;54.70;;;;;;4974095;28;19918;-62
2022/09/02 00:14:50;;;;;;;;;;;21.00;54.50;;;;;;4974428;28;19911;-63
2022/09/02 00:17:16;;;;;;;;;;;21.10;54.50;;;;;;4974265;28;19998;-61
2022/09/02 00:19:41;;;;;;;;;;;21.10;54.00;;;;;;4968655;28;20259;-61
2022/09/02 00:22:07;;;;;;;;;;;21.10;54.10;;;;;;4955537;28;20040;-62
2022/09/02 00:24:33;;;;;;;;;;;21.20;54.00;;;;;;4974436;28;19910;-62
2022/09/02 00:26:59;;;;;;;;;;;21.10;54.20;;;;;;4974426;28;19914;-64
2022/09/02 00:29:26;;;;;;;;;;;21.10;53.90;;;;;;4973900;28;19918;-64
2022/09/02 00:31:52;;;;;;;;;;;21.10;54.00;;;;;;4974189;28;19997;-62
2022/09/02 00:34:18;;;;;;;;;;;21.10;53.80;;;;;;4974076;28;20000;-63
2022/09/02 00:36:43;;;;;;;;;;;21.00;54.20;;;;;;4973821;28;19946;-62
2022/09/02 00:39:09;;;;;;;;;;;21.10;54.20;;;;;;4973890;28;20000;-64
2022/09/02 00:41:36;;;;;;;;;;;21.00;54.00;;;;;;4973825;28;19910;-64
2022/09/02 00:44:03;;;;;;;;;;;20.90;54.00;;;;;;4973936;28;19969;-65
2022/09/02 00:46:30;;;;;;;;;;;20.80;54.30;;;;;;4973809;28;19916;-62
2022/09/02 00:48:59;;;;;;;;;;;20.70;54.40;;;;;;4973690;28;20279;-63
2022/09/02 00:51:27;;;;;;;;;;;20.80;54.60;;;;;;4973514;28;20278;-63
2022/09/02 00:53:52;;;;;;;;;;;21.00;54.20;;;;;;4961928;28;19921;-63
2022/09/02 00:56:20;;;;;;;;;;;20.90;54.00;;;;;;4973793;28;20366;-63
2022/09/02 00:58:46;;;;;;;;;;;21.00;53.80;;;;;;4973565;28;19914;-64
2022/09/02 01:01:12;;;;;;;;;;;21.00;53.80;;;;;;4973607;28;20326;-64
2022/09/02 01:03:39;;;;;;;;;;;21.00;54.30;;;;;;4973315;28;19914;-61
2022/09/02 01:06:05;;;;;;;;;;;20.90;53.80;;;;;;4973573;28;19921;-62
2022/09/02 01:08:33;;;;;;;;;;;20.80;54.10;;;;;;4973422;28;19961;-63
2022/09/02 01:11:00;;;;;;;;;;;20.70;54.20;;;;;;4973263;28;19972;-61
2022/09/02 01:13:27;;;;;;;;;;;20.80;54.70;;;;;;4973302;28;19962;-63
2022/09/02 01:15:54;;;;;;;;;;;20.80;54.20;;;;;;4973426;28;20252;-62
2022/09/02 01:18:22;;;;;;;;;;;20.70;54.20;;;;;;4973186;28;20444;-62
2022/09/02 01:20:48;;;;;;;;;;;20.60;54.20;;;;;;4959704;28;20054;-62
2022/09/02 01:23:15;;;;;;;;;;;20.60;54.60;;;;;;4961794;28;20000;-61
2022/09/02 01:25:42;;;;;;;;;;;20.40;54.90;;;;;;4973357;28;19918;-61
2022/09/02 01:28:08;;;;;;;;;;;20.40;55.30;;;;;;4973195;28;19910;-62
2022/09/02 01:30:36;;;;;;;;;;;20.50;54.50;;;;;;4973174;28;19925;-64
2022/09/02 01:33:01;;;;;;;;;;;20.50;54.40;;;;;;4973900;28;20378;-66
2022/09/02 01:35:27;;;;;;;;;;;20.50;54.50;;;;;;4979625;28;19921;-63
2022/09/02 01:37:56;;;;;;;;;;;20.30;54.80;;;;;;4979543;28;19910;-62
2022/09/02 01:40:22;;;;;;;;;;;20.40;54.10;;;;;;4979532;28;20354;-62
2022/09/02 01:42:51;;;;;;;;;;;20.40;53.50;;;;;;4979545;28;20000;-61
2022/09/02 01:45:17;;;;;;;;;;;20.40;53.50;;;;;;4979316;28;19911;-63
2022/09/02 01:47:43;;;;;;;;;;;20.30;53.70;;;;;;4979514;28;20250;-62
2022/09/02 01:50:08;;;;;;;;;;;20.30;53.70;;;;;;4979278;28;19930;-62
2022/09/02 01:52:34;;;;;;;;;;;20.30;53.20;;;;;;4957344;28;20277;-62
2022/09/02 01:55:00;;;;;;;;;;;20.40;53.30;;;;;;4975821;28;20355;-62
2022/09/02 01:57:27;;;;;;;;;;;20.30;53.30;;;;;;4979372;28;20010;-63
2022/09/02 01:59:53;;;;;;;;;;;20.40;53.20;;;;;;4979248;28;19993;-63
2022/09/02 02:02:19;;;;;;;;;;;20.30;53.00;;;;;;4979384;28;20348;-62
2022/09/02 02:04:48;;;;;;;;;;;20.30;53.30;;;;;;4979354;28;19921;-62
2022/09/02 02:07:15;;;;;;;;;;;20.30;53.00;;;;;;4979320;28;19910;-63
2022/09/02 02:09:41;;;;;;;;;;;20.30;52.90;;;;;;4979142;28;19922;-63
2022/09/02 02:12:07;;;;;;;;;;;20.20;53.00;;;;;;4979003;28;19914;-66
2022/09/02 02:14:33;;;;;;;;;;;20.20;52.70;;;;;;4979335;28;19973;-63
2022/09/02 02:16:59;;;;;;;;;;;20.20;52.90;;;;;;4979277;28;20374;-63
2022/09/02 02:19:25;;;;;;;;;;;20.20;52.70;;;;;;4975930;28;20001;-62
2022/09/02 02:21:50;;;;;;;;;;;20.20;52.80;;;;;;4944749;29;20384;-62
2022/09/02 02:24:16;;;;;;;;;;;20.20;52.60;;;;;;4974821;28;20420;-60
2022/09/02 02:26:42;;;;;;;;;;;20.20;52.60;;;;;;4979618;28;20361;-61
2022/09/02 02:29:07;;;;;;;;;;;20.20;52.30;;;;;;4978941;28;19914;-64
2022/09/02 02:31:34;;;;;;;;;;;20.10;52.60;;;;;;4979023;28;19921;-63
2022/09/02 02:34:00;;;;;;;;;;;20.10;52.60;;;;;;4979123;28;19910;-62
2022/09/02 02:36:26;;;;;;;;;;;20.20;52.50;;;;;;4978901;28;19910;-63
2022/09/02 02:38:51;;;;;;;;;;;20.10;52.60;;;;;;4979031;28;19910;-62
2022/09/02 02:41:17;;;;;;;;;;;20.10;52.50;;;;;;4979052;28;20344;-63
2022/09/02 02:43:43;;;;;;;;;;;20.00;52.70;;;;;;4978927;28;19914;-63
2022/09/02 02:46:08;;;;;;;;;;;20.10;52.90;;;;;;4975708;28;19910;-62
2022/09/02 02:48:35;;;;;;;;;;;20.10;52.30;;;;;;4975688;28;19957;-62
2022/09/02 02:51:01;;;;;;;;;;;20.10;52.30;;;;;;4975753;28;19970;-62
2022/09/02 02:53:28;;;;;;;;;;;20.00;52.70;;;;;;4959907;28;20003;-60
2022/09/02 02:55:54;;;;;;;;;;;20.10;52.40;;;;;;4976019;28;19917;-62
2022/09/02 02:58:19;;;;;;;;;;;20.10;52.10;;;;;;4976060;28;20333;-61
2022/09/02 03:00:45;;;;;;;;;;;20.10;52.20;;;;;;4975749;28;19917;-63
2022/09/02 03:03:11;;;;;;;;;;;20.00;52.10;;;;;;4975787;28;19919;-63
2022/09/02 03:05:37;;;;;;;;;;;19.90;53.20;;;;;;4975420;28;20255;-61
2022/09/02 03:08:04;;;;;;;;;;;19.90;52.20;;;;;;4975679;28;20004;-63
2022/09/02 03:10:31;;;;;;;;;;;19.90;52.30;;;;;;4975559;28;19984;-64
2022/09/02 03:13:00;;;;;;;;;;;20.00;52.10;;;;;;4975368;28;19990;-61
2022/09/02 03:15:26;;;;;;;;;;;19.90;52.00;;;;;;4975313;28;19933;-63
2022/09/02 03:17:52;;;;;;;;;;;20.00;51.80;;;;;;4975741;28;20385;-63
2022/09/02 03:20:18;;;;;;;;;;;20.00;51.70;;;;;;4965180;28;19929;-61
2022/09/02 03:22:45;;;;;;;;;;;20.00;51.50;;;;;;4960232;28;20298;-61
2022/09/02 03:25:11;;;;;;;;;;;19.90;51.40;;;;;;4975294;28;20437;-63
2022/09/02 03:27:37;;;;;;;;;;;20.00;51.30;;;;;;4975159;28;19914;-63
2022/09/02 03:30:04;;;;;;;;;;;19.90;50.90;;;;;;4975248;28;19985;-63
2022/09/02 03:32:30;;;;;;;;;;;19.90;51.10;;;;;;4975409;28;19914;-63
2022/09/02 03:34:55;;;;;;;;;;;20.10;50.80;;;;;;4975115;28;20286;-61
2022/09/02 03:37:21;;;;;;;;;;;20.20;50.50;;;;;;4975063;28;20377;-61
2022/09/02 03:39:47;;;;;;;;;;;20.20;50.30;;;;;;4974792;28;20289;-61
2022/09/02 03:42:12;;;;;;;;;;;20.10;49.80;;;;;;4973460;28;19922;-61
2022/09/02 03:44:40;;;;;;;;;;;20.20;50.10;;;;;;4974857;28;20373;-61
2022/09/02 03:47:06;;;;;;;;;;;20.20;49.90;;;;;;4974914;28;20396;-63
2022/09/02 03:49:31;;;;;;;;;;;20.20;49.70;;;;;;4974855;28;19923;-62
2022/09/02 03:51:57;;;;;;;;;;;20.00;50.00;;;;;;4961557;28;20040;-62
2022/09/02 03:54:22;;;;;;;;;;;20.10;50.10;;;;;;4974798;28;19914;-61
2022/09/02 03:56:48;;;;;;;;;;;20.10;49.80;;;;;;4974497;28;19917;-63
2022/09/02 03:59:14;;;;;;;;;;;20.10;49.80;;;;;;4974710;28;20008;-61
2022/09/02 04:01:40;;;;;;;;;;;20.10;49.80;;;;;;4974479;28;19914;-63
2022/09/02 04:04:05;;;;;;;;;;;20.00;49.80;;;;;;4974791;28;19914;-63
2022/09/02 04:06:31;;;;;;;;;;;20.10;49.60;;;;;;4974471;28;20355;-63
2022/09/02 04:08:57;;;;;;;;;;;20.00;49.60;;;;;;4974718;28;19914;-62
2022/09/02 04:11:22;;;;;;;;;;;20.00;49.80;;;;;;4974517;28;19918;-63
2022/09/02 04:13:49;;;;;;;;;;;20.10;50.10;;;;;;4974222;28;20267;-62
2022/09/02 04:16:16;;;;;;;;;;;19.90;50.00;;;;;;4965955;28;19966;-62
2022/09/02 04:18:41;;;;;;;;;;;20.00;49.80;;;;;;4969721;28;19934;-63
2022/09/02 04:21:07;;;;;;;;;;;19.90;50.00;;;;;;4960712;28;19910;-61
2022/09/02 04:23:33;;;;;;;;;;;19.90;50.60;;;;;;4964970;28;19914;-61
2022/09/02 04:26:02;;;;;;;;;;;19.90;50.40;;;;;;4974070;28;20398;-62
2022/09/02 04:28:28;;;;;;;;;;;19.90;50.20;;;;;;4974174;28;19921;-61
2022/09/02 04:30:53;;;;;;;;;;;19.90;51.00;;;;;;4973999;28;20317;-62
2022/09/02 04:33:19;;;;;;;;;;;20.00;50.10;;;;;;4974049;28;19909;-61
2022/09/02 04:35:47;;;;;;;;;;;20.00;50.20;;;;;;4974074;28;20370;-61
2022/09/02 04:38:13;;;;;;;;;;;19.90;50.30;;;;;;4973830;28;20010;-62
2022/09/02 04:40:40;;;;;;;;;;;19.80;50.60;;;;;;4973670;28;19992;-61
2022/09/02 04:43:05;;;;;;;;;;;19.80;50.40;;;;;;4973994;28;19953;-62
2022/09/02 04:45:31;;;;;;;;;;;19.80;50.80;;;;;;4973851;28;19961;-61
2022/09/02 04:47:56;;;;;;;;;;;19.80;50.80;;;;;;4973696;28;19914;-60
2022/09/02 04:50:22;;;;;;;;;;;19.90;51.00;;;;;;4973875;28;19925;-62
2022/09/02 04:52:47;;;;;;;;;;;19.80;50.80;;;;;;4959182;28;19960;-61
2022/09/02 04:55:13;;;;;;;;;;;19.80;51.00;;;;;;4973448;28;20382;-61
2022/09/02 04:57:39;;;;;;;;;;;19.70;51.30;;;;;;4974037;28;19917;-61
2022/09/02 05:00:06;;;;;;;;;;;19.80;51.20;;;;;;4973496;28;19965;-62
2022/09/02 05:02:32;;;;;;;;;;;19.70;51.50;;;;;;4973578;28;19913;-62
2022/09/02 05:04:57;;;;;;;;;;;19.70;51.60;;;;;;4973470;28;20207;-62
2022/09/02 05:07:23;;;;;;;;;;;19.70;51.60;;;;;;4973621;28;20410;-62
2022/09/02 05:09:48;;;;;;;;;;;19.70;51.80;;;;;;4972823;28;19977;-62
2022/09/02 05:12:14;;;;;;;;;;;19.70;51.60;;;;;;4973092;28;19992;-61
2022/09/02 05:14:40;;;;;;;;;;;19.70;51.50;;;;;;4973537;28;19933;-63
2022/09/02 05:17:05;;;;;;;;;;;19.80;51.70;;;;;;4973253;28;20404;-61
2022/09/02 05:19:31;;;;;;;;;;;19.90;51.40;;;;;;4969272;28;20002;-63
2022/09/02 05:21:58;;;;;;;;;;;20.00;51.40;;;;;;4951158;28;20386;-63
2022/09/02 05:24:24;;;;;;;;;;;20.00;51.40;;;;;;4973208;28;19993;-62
2022/09/02 05:26:49;;;;;;;;;;;20.10;50.90;;;;;;4973338;28;19910;-62
2022/09/02 05:29:17;;;;;;;;;;;20.10;51.00;;;;;;4973255;28;19921;-62
2022/09/02 05:31:43;;;;;;;;;;;20.10;50.90;;;;;;4972494;28;20389;-60
2022/09/02 05:34:09;;;;;;;;;;;20.20;50.10;;;;;;4973358;28;20000;-62
2022/09/02 05:36:34;;;;;;;;;;;20.10;50.60;;;;;;4973178;28;20013;-63
2022/09/02 05:39:00;;;;;;;;;;;20.10;51.10;;;;;;4973124;28;20067;-62
2022/09/02 05:41:26;;;;;;;;;;;20.00;50.40;;;;;;4973108;28;19910;-61
2022/09/02 05:43:53;;;;;;;;;;;20.10;50.70;;;;;;4973048;28;19911;-61
2022/09/02 05:46:20;;;;;;;;;;;20.10;50.60;;;;;;4973111;28;19911;-61
2022/09/02 05:49:05;;;;;;;;;;;20.20;50.40;;;;;;4972965;28;19914;-62
2022/09/02 05:51:32;;;;;;;;;;;20.20;50.30;;;;;;4972813;28;20374;-63
2022/09/02 05:53:59;;;;;;;;;;;20.10;50.00;;;;;;4963951;28;19911;-59
2022/09/02 05:56:26;;;;;;;;;;;19.90;50.50;;;;;;4973156;28;19917;-63
2022/09/02 05:58:53;;;;;;;;;;;19.90;51.70;;;;;;4972970;28;19921;-62
2022/09/02 06:01:19;;;;;;;;;;;20.10;50.10;;;;;;4973028;28;20378;-63
2022/09/02 06:03:45;;;;;;;;;;;20.00;50.30;;;;;;4972776;28;19921;-61
2022/09/02 06:06:11;;;;;;;;;;;20.00;51.00;;;;;;4972774;28;19910;-63
2022/09/02 06:08:37;;;;;;;;;;;20.20;50.80;;;;;;4972460;28;19917;-63
2022/09/02 06:11:05;;;;;;;;;;;20.80;49.40;;;;;;4972962;28;19922;-63
2022/09/02 06:13:33;;;;;;;;;;;21.30;48.50;;;;;;4972590;28;20403;-63
2022/09/02 06:15:59;;;;;;;;;;;21.80;47.70;;;;;;4972759;28;19914;-63
2022/09/02 06:18:25;;;;;;;;;;;22.30;46.40;;;;;;4972583;28;19918;-63
2022/09/02 06:20:51;;;;;;;;;;;22.70;45.60;;;;;;4960294;28;19918;-61
2022/09/02 06:23:16;;;;;;;;;;;23.20;45.00;;;;;;4967594;28;19965;-63
2022/09/02 06:25:43;;;;;;;;;;;23.40;44.10;;;;;;4976288;28;19911;-62
2022/09/02 06:28:09;;;;;;;;;;;23.70;43.90;;;;;;4976277;28;19964;-63
2022/09/02 06:30:37;;;;;;;;;;;23.90;43.60;;;;;;4976082;28;19957;-62
2022/09/02 06:33:02;;;;;;;;;;;24.10;42.90;;;;;;4976623;28;19921;-62
2022/09/02 06:35:30;;;;;;;;;;;24.30;42.00;;;;;;4976119;28;19910;-61
2022/09/02 06:37:56;;;;;;;;;;;24.00;41.60;;;;;;4976181;28;20015;-62
2022/09/02 06:40:22;;;;;;;;;;;23.80;41.70;;;;;;4976405;28;19918;-65
2022/09/02 06:42:49;;;;;;;;;;;23.70;42.00;;;;;;4975951;28;19976;-65
2022/09/02 06:45:14;;;;;;;;;;;23.80;42.20;;;;;;4976052;28;19910;-65
2022/09/02 06:47:41;;;;;;;;;;;23.70;42.40;;;;;;4976144;28;19910;-65
2022/09/02 06:50:07;;;;;;;;;;;23.90;42.50;;;;;;4967737;28;19979;-65
2022/09/02 06:52:33;;;;;;;;;;;24.00;42.10;;;;;;4944328;29;19914;-66
2022/09/02 06:54:58;;;;;;;;;;;24.00;41.80;;;;;;4953225;29;19921;-65
2022/09/02 06:57:24;;;;;;;;;;;24.10;41.50;;;;;;4950530;29;20278;-64
2022/09/02 06:59:50;;;;;;;;;;;24.00;41.40;;;;;;4955224;29;20277;-63
2022/09/02 07:02:15;;;;;;;;;;;23.90;41.60;;;;;;4955397;29;20057;-63
2022/09/02 07:07:25;;;;;;;;;;;24.10;42.20;;;;;;4955826;29;19922;-65
2022/09/02 07:09:51;;;;;;;;;;;24.20;41.90;;;;;;4936508;29;19919;-65
2022/09/02 07:12:18;;;;;;;;;;;24.40;41.60;;;;;;4936500;28;19915;-65
2022/09/02 07:14:45;;;;;;;;;;;24.60;41.70;;;;;;4956672;28;20386;-63
2022/09/02 07:17:16;;;;;;;;;;;24.50;41.30;;;;;;4975434;28;19969;-65
2022/09/02 07:19:42;;;;;;;;;;;24.40;41.10;;;;;;4969560;28;19921;-64
2022/09/02 07:22:08;;;;;;;;;;;24.30;41.40;;;;;;4938512;28;20002;-64
2022/09/02 07:24:33;;;;;;;;;;;24.30;42.00;;;;;;4939268;28;20013;-62
2022/09/02 07:26:59;;;;;;;;;;;24.40;42.20;;;;;;4935995;29;20005;-62
2022/09/02 07:29:24;;;;;;;;;;;24.40;42.00;;;;;;4954614;28;19931;-65
2022/09/02 07:31:50;;;;;;;;;;;24.50;41.50;;;;;;4941873;28;19915;-66
2022/09/02 07:34:16;;;;;;;;;;;24.40;41.80;;;;;;4941963;28;19914;-66
2022/09/02 07:36:44;;;;;;;;;;;24.40;42.00;;;;;;4974913;28;19914;-66
2022/09/02 07:39:10;;;;;;;;;;;24.50;41.90;;;;;;4974938;28;19914;-65
2022/09/02 07:41:36;;;;;;;;;;;24.30;42.00;;;;;;4975062;28;20373;-63
2022/09/02 07:44:03;;;;;;;;;;;23.80;42.90;;;;;;4974769;28;19914;-62
2022/09/02 07:46:30;;;;;;;;;;;23.70;43.00;;;;;;4974758;28;20415;-64
2022/09/02 07:48:56;;;;;;;;;;;23.50;43.70;;;;;;4974937;28;19949;-65
2022/09/02 07:51:22;;;;;;;;;;;23.60;44.10;;;;;;4961196;28;19926;-63
2022/09/02 07:53:48;;;;;;;;;;;23.50;44.80;;;;;;4963580;28;19921;-63
2022/09/02 07:56:14;;;;;;;;;;;23.60;43.90;;;;;;4960746;28;19982;-65
2022/09/02 07:58:43;;;;;;;;;;;23.70;44.30;;;;;;4974609;28;19910;-63
2022/09/02 08:01:08;;;;;;;;;;;23.60;44.30;;;;;;4974576;28;20366;-65
2022/09/02 08:03:35;;;;;;;;;;;23.50;44.40;;;;;;4974502;28;19933;-62
2022/09/02 08:06:01;;;;;;;;;;;23.20;45.10;;;;;;4974321;28;20222;-63
2022/09/02 08:08:27;;;;;;;;;;;23.40;44.80;;;;;;4974382;28;19914;-64
2022/09/02 08:10:53;;;;;;;;;;;23.40;44.90;;;;;;4974133;28;19922;-64
2022/09/02 08:13:20;;;;;;;;;;;23.40;45.70;;;;;;4974175;28;20045;-66
2022/09/02 08:15:46;;;;;;;;;;;23.40;44.80;;;;;;4974372;28;20413;-63
2022/09/02 08:18:11;;;;;;;;;;;23.40;45.00;;;;;;4974422;28;20057;-63
2022/09/02 08:20:37;;;;;;;;;;;23.60;45.60;;;;;;4961154;28;19969;-63
2022/09/02 08:23:05;;;;;;;;;;;23.60;44.40;;;;;;4959523;28;19914;-63
2022/09/02 08:25:31;;;;;;;;;;;23.80;45.30;;;;;;4973831;28;19917;-63
2022/09/02 08:27:57;;;;;;;;;;;23.90;44.90;;;;;;4974163;28;19911;-63
2022/09/02 08:30:23;;;;;;;;;;;24.10;44.40;;;;;;4948904;28;19929;-63
2022/09/02 08:32:48;;;;;;;;;;;24.10;44.40;;;;;;4934956;29;19922;-63
2022/09/02 08:35:14;;;;;;;;;;;24.20;45.20;;;;;;4954063;29;19914;-63
2022/09/02 08:37:40;;;;;;;;;;;24.20;43.70;;;;;;4967904;28;19968;-62
2022/09/02 08:40:07;;;;;;;;;;;24.00;44.50;;;;;;4973628;28;19914;-63
2022/09/02 08:42:32;;;;;;;;;;;24.10;45.30;;;;;;4973432;28;20425;-63
2022/09/02 08:45:03;;;;;;;;;;;24.20;45.50;;;;;;4973552;28;19914;-62
2022/09/02 08:47:30;;;;;;;;;;;24.20;44.70;;;;;;4973918;28;20338;-63
2022/09/02 08:49:57;;;;;;;;;;;24.50;43.90;;;;;;4973869;28;19939;-63
2022/09/02 08:52:35;;;;;;;;;;;24.70;44.40;;;;;;4955177;28;20016;-64
2022/09/02 08:55:01;;;;;;;;;;;24.90;44.60;;;;;;4972757;28;20281;-63
2022/09/02 08:57:27;;;;;;;;;;;24.80;42.50;;;;;;4973754;28;19910;-63
2022/09/02 08:59:55;;;;;;;;;;;24.80;43.60;;;;;;4973183;28;19910;-63
2022/09/02 09:02:21;;;;;;;;;;;24.80;42.90;;;;;;4973671;28;20378;-62
2022/09/02 09:05:05;;;;;;;;;;;25.00;43.50;;;;;;4973584;28;19917;-63
2022/09/02 09:07:56;;;;;;;;;;;24.50;43.50;;;;;;4973495;28;19964;-61
2022/09/02 09:10:41;;;;;;;;;;;24.20;44.70;;;;;;4971977;28;19953;-64
2022/09/02 09:13:32;;;;;;;;;;;24.30;44.80;;;;;;4973186;28;19926;-62
2022/09/02 09:16:05;;;;;;;;;;;24.40;43.70;;;;;;4957800;28;20102;-62
2022/09/02 09:18:37;;;;;;;;;;;24.40;44.00;;;;;;4973260;28;19918;-62
2022/09/02 09:21:03;;;;;;;;;;;24.30;43.90;;;;;;4959611;28;19914;-61
2022/09/02 09:23:29;;;;;;;;;;;24.10;44.00;;;;;;4955925;28;19926;-63
2022/09/02 09:25:58;;;;;;;;;;;24.20;45.60;;;;;;4973072;28;19917;-64
2022/09/02 09:28:23;;;;;;;;;;;24.40;45.90;;;;;;4973314;28;19910;-63
2022/09/02 09:30:49;;;;;;;;;;;24.60;45.00;;;;;;4972969;28;19928;-63
2022/09/02 09:33:16;;;;;;;;;;;24.80;44.60;;;;;;4973179;28;20009;-62
2022/09/02 09:35:49;;;;;;;;;;;24.90;44.00;;;;;;4972984;28;20334;-64
2022/09/02 09:38:15;;;;;;;;;;;24.90;43.20;;;;;;4973079;28;19969;-63
2022/09/02 09:40:40;;;;;;;;;;;24.90;43.10;;;;;;4973070;28;20424;-64
2022/09/02 09:43:11;;;;;;;;;;;24.90;43.60;;;;;;4973004;28;19910;-63
2022/09/02 09:45:37;;;;;;;;;;;25.00;44.70;;;;;;4972903;28;19914;-63
2022/09/02 09:48:09;;;;;;;;;;;25.20;44.80;;;;;;4973047;28;20431;-64
2022/09/02 09:50:35;;;;;;;;;;;24.90;41.90;;;;;;4972980;28;19961;-62
2022/09/02 09:53:14;;;;;;;;;;;24.60;43.80;;;;;;4958687;28;19996;-64
2022/09/02 09:55:56;;;;;;;;;;;24.70;43.80;;;;;;4975927;28;19910;-63
2022/09/02 09:58:22;;;;;;;;;;;24.80;43.50;;;;;;4976954;28;20009;-62
2022/09/02 10:00:50;;;;;;;;;;;24.80;42.70;;;;;;4976801;28;20258;-62
2022/09/02 10:03:23;;;;;;;;;;;24.90;42.50;;;;;;4976626;28;19914;-62
2022/09/02 10:05:52;;;;;;;;;;;24.80;42.80;;;;;;4976803;28;19921;-63
2022/09/02 10:08:20;;;;;;;;;;;25.00;42.80;;;;;;4976861;28;19922;-63
2022/09/02 10:11:02;;;;;;;;;;;25.00;43.40;;;;;;4976440;28;19919;-62
2022/09/02 10:13:32;;;;;;;;;;;25.00;43.40;;;;;;4976376;28;20405;-62
2022/09/02 10:16:16;;;;;;;;;;;25.30;43.40;;;;;;4975274;28;19918;-63
2022/09/02 10:18:42;;;;;;;;;;;25.30;43.90;;;;;;4976480;28;19918;-65
2022/09/02 10:21:28;;;;;;;;;;;25.60;44.50;;;;;;4962870;28;19917;-63
2022/09/02 10:23:59;;;;;;;;;;;25.60;44.00;;;;;;4963307;28;19917;-63
2022/09/02 10:26:28;;;;;;;;;;;25.70;43.00;;;;;;4976225;28;20251;-63
2022/09/02 10:29:13;;;;;;;;;;;25.60;43.80;;;;;;4976198;28;19910;-64
2022/09/02 10:31:53;;;;;;;;;;;25.70;43.20;;;;;;4976449;28;19922;-62
2022/09/02 10:34:19;;;;;;;;;;;25.80;43.70;;;;;;4976456;28;20318;-62
2022/09/02 10:36:47;;;;;;;;;;;25.70;42.30;;;;;;4976292;28;19914;-63
2022/09/02 10:39:21;;;;;;;;;;;25.60;43.30;;;;;;4976118;28;19937;-64
2022/09/02 10:41:48;;;;;;;;;;;25.50;42.90;;;;;;4962354;28;19956;-64
2022/09/02 10:44:26;;;;;;;;;;;25.70;43.70;;;;;;4976496;28;19910;-63
2022/09/02 10:46:56;;;;;;;;;;;25.70;43.00;;;;;;4974909;28;19921;-63
2022/09/02 10:49:36;;;;;;;;;;;25.60;42.50;;;;;;4976273;28;19921;-63
2022/09/02 10:52:14;;;;;;;;;;;26.00;45.10;;;;;;4963916;28;20298;-62
2022/09/02 10:54:40;;;;;;;;;;;26.00;41.80;;;;;;4976142;28;19910;-63
2022/09/02 10:57:05;;;;;;;;;;;26.00;42.30;;;;;;4976301;28;19910;-62
2022/09/02 10:59:33;;;;;;;;;;;26.00;42.60;;;;;;4975681;28;20325;-63
2022/09/02 11:02:04;;;;;;;;;;;26.20;42.70;;;;;;4975834;28;20366;-63
2022/09/02 11:04:45;;;;;;;;;;;26.20;42.60;;;;;;4975728;28;19910;-64
2022/09/02 11:07:13;;;;;;;;;;;26.00;41.60;;;;;;4974800;28;20288;-62
2022/09/02 11:09:42;;;;;;;;;;;26.10;42.60;;;;;;4974109;28;19914;-64
2022/09/02 11:12:08;;;;;;;;;;;25.80;42.70;;;;;;4975395;28;19910;-62
2022/09/02 11:14:52;;;;;;;;;;;25.70;43.10;;;;;;4975502;28;20053;-62
2022/09/02 11:17:20;;;;;;;;;;;25.70;43.60;;;;;;4975373;28;19910;-66
2022/09/02 11:19:54;;;;;;;;;;;25.40;42.30;;;;;;4969314;28;19962;-63
2022/09/02 11:22:37;;;;;;;;;;;25.40;42.10;;;;;;4955390;28;19913;-62
2022/09/02 11:25:09;;;;;;;;;;;25.50;43.70;;;;;;4976470;28;19910;-63
2022/09/02 11:27:34;;;;;;;;;;;25.30;43.30;;;;;;4975280;28;19910;-63
2022/09/02 11:30:03;;;;;;;;;;;25.30;43.20;;;;;;4975059;28;19973;-62
2022/09/02 11:32:33;;;;;;;;;;;25.20;43.50;;;;;;4957496;28;19938;-61
2022/09/02 11:35:02;;;;;;;;;;;25.10;43.00;;;;;;4954906;28;20294;-62
2022/09/02 11:37:28;;;;;;;;;;;25.10;43.50;;;;;;4949925;28;19965;-62
2022/09/02 11:40:16;;;;;;;;;;;25.30;44.20;;;;;;4941294;29;19910;-63
2022/09/02 11:42:51;;;;;;;;;;;25.40;43.40;;;;;;4954521;28;20369;-66
2022/09/02 11:45:25;;;;;;;;;;;25.50;44.10;;;;;;4954976;29;19918;-64
2022/09/02 11:48:00;;;;;;;;;;;25.80;44.20;;;;;;4954828;28;19933;-61
2022/09/02 11:50:44;;;;;;;;;;;26.10;44.30;;;;;;4948905;28;19919;-62
2022/09/02 11:53:12;;;;;;;;;;;26.40;44.60;;;;;;4941935;28;19911;-64
2022/09/02 11:55:58;;;;;;;;;;;26.50;42.80;;;;;;4955754;28;20378;-65
2022/09/02 11:58:59;;;;;;;;;;;26.40;43.30;;;;;;4957317;28;19953;-63
2022/09/02 12:01:36;;;;;;;;;;;26.30;42.90;;;;;;4913847;29;19911;-63
2022/09/02 12:04:10;;;;;;;;;;;26.20;42.50;;;;;;4937916;28;19915;-63
2022/09/02 12:06:36;;;;;;;;;;;26.40;42.80;;;;;;4949037;28;19914;-65
2022/09/02 12:09:06;;;;;;;;;;;26.30;41.80;;;;;;4960864;28;19915;-63
2022/09/02 12:11:38;;;;;;;;;;;26.10;41.30;;;;;;4960886;28;19936;-66
2022/09/02 12:14:04;;;;;;;;;;;25.70;42.20;;;;;;4948671;28;19966;-64
2022/09/02 12:16:35;;;;;;;;;;;25.90;42.20;;;;;;4935201;29;19918;-71
2022/09/02 12:19:06;;;;;;;;;;;25.70;42.30;;;;;;4941003;28;20006;-63
2022/09/02 12:21:34;;;;;;;;;;;25.80;42.60;;;;;;4944985;29;20263;-69
2022/09/02 12:23:59;;;;;;;;;;;26.00;42.50;;;;;;4944439;28;20425;-69
2022/09/02 12:26:28;;;;;;;;;;;26.40;42.10;;;;;;4953745;28;19915;-65
2022/09/02 12:29:09;;;;;;;;;;;26.60;41.40;;;;;;4945827;28;19911;-67
2022/09/02 12:31:42;;;;;;;;;;;26.70;41.30;;;;;;4953447;28;19946;-67
2022/09/02 12:34:20;;;;;;;;;;;26.50;41.10;;;;;;4954242;28;20001;-70
2022/09/02 12:36:47;;;;;;;;;;;26.40;41.70;;;;;;4956130;28;19914;-68
2022/09/02 12:39:22;;;;;;;;;;;26.60;40.90;;;;;;4956660;28;19957;-69
2022/09/02 12:42:03;;;;;;;;;;;26.80;41.60;;;;;;4944997;28;19919;-70
2022/09/02 12:44:47;;;;;;;;;;;26.70;40.70;;;;;;4954269;28;19910;-67
2022/09/02 12:47:12;;;;;;;;;;;26.60;41.70;;;;;;4950477;28;19938;-66
2022/09/02 12:49:44;;;;;;;;;;;26.80;41.40;;;;;;4953869;28;20342;-62
2022/09/02 12:52:30;;;;;;;;;;;26.90;40.00;;;;;;4964019;28;20362;-65
2022/09/02 12:54:55;;;;;;;;;;;27.00;40.60;;;;;;4966426;28;20290;-66
2022/09/02 12:57:36;;;;;;;;;;;27.10;41.10;;;;;;4973815;28;19926;-68
2022/09/02 13:00:02;;;;;;;;;;;26.90;39.60;;;;;;4973635;28;19914;-72
2022/09/02 13:02:38;;;;;;;;;;;26.80;39.60;;;;;;4973227;28;19910;-63
2022/09/02 13:05:07;;;;;;;;;;;26.60;40.60;;;;;;4945514;28;19918;-65
2022/09/02 13:07:45;;;;;;;;;;;26.50;39.80;;;;;;4950793;29;20429;-64
2022/09/02 13:10:30;;;;;;;;;;;26.60;40.80;;;;;;4935470;28;19930;-64
2022/09/02 13:12:55;;;;;;;;;;;26.90;40.90;;;;;;4952003;29;20077;-65
2022/09/02 13:15:39;;;;;;;;;;;27.00;39.90;;;;;;4953009;29;20021;-64
2022/09/02 13:18:23;;;;;;;;;;;27.20;39.60;;;;;;4953203;28;20282;-63
2022/09/02 13:20:58;;;;;;;;;;;27.00;39.60;;;;;;4953194;28;19910;-62
2022/09/02 13:23:50;;;;;;;;;;;26.70;40.70;;;;;;4952397;28;19957;-60
2022/09/02 13:26:34;;;;;;;;;;;26.70;41.30;;;;;;4973474;28;20294;-63
2022/09/02 13:29:02;;;;;;;;;;;26.60;42.10;;;;;;4972841;28;19968;-61
2022/09/02 13:31:28;;;;;;;;;;;26.60;41.20;;;;;;4973163;28;19961;-62
2022/09/02 13:34:01;;;;;;;;;;;26.60;42.60;;;;;;4967407;28;19958;-60
2022/09/02 13:36:29;;;;;;;;;;;26.80;42.20;;;;;;4951237;29;20337;-62
2022/09/02 13:38:54;;;;;;;;;;;26.50;43.00;;;;;;4952956;28;19911;-62
2022/09/02 13:41:26;;;;;;;;;;;26.20;42.90;;;;;;4952847;28;19926;-61
2022/09/02 13:44:08;;;;;;;;;;;26.20;41.80;;;;;;4953031;28;20366;-60
2022/09/02 13:46:42;;;;;;;;;;;26.40;42.60;;;;;;4952803;29;19921;-63
2022/09/02 13:49:07;;;;;;;;;;;26.30;42.10;;;;;;4952582;28;20017;-62
2022/09/02 13:51:33;;;;;;;;;;;26.30;43.00;;;;;;4951231;29;20041;-62
2022/09/02 13:53:59;;;;;;;;;;;26.30;42.40;;;;;;4940482;29;19922;-63
2022/09/02 13:56:27;;;;;;;;;;;26.40;43.10;;;;;;4936965;29;19918;-64
2022/09/02 13:58:56;;;;;;;;;;;26.30;42.00;;;;;;4937318;29;19922;-63
2022/09/02 14:01:22;;;;;;;;;;;26.50;42.60;;;;;;4943519;28;19939;-65
2022/09/02 14:03:52;;;;;;;;;;;26.50;43.00;;;;;;4953766;28;19914;-60
2022/09/02 14:06:29;;;;;;;;;;;26.50;42.40;;;;;;4934365;28;19922;-62
2022/09/02 14:08:57;;;;;;;;;;;26.50;42.10;;;;;;4951059;28;19914;-64
2022/09/02 14:11:23;;;;;;;;;;;26.60;42.00;;;;;;4952961;28;19926;-62
2022/09/02 14:13:49;;;;;;;;;;;26.60;42.60;;;;;;4953011;28;19970;-61
2022/09/02 14:16:34;;;;;;;;;;;26.70;42.80;;;;;;4953041;28;19917;-65
2022/09/02 14:19:03;;;;;;;;;;;26.70;42.70;;;;;;4952861;29;19922;-62
2022/09/02 14:21:28;;;;;;;;;;;26.50;41.70;;;;;;4953010;29;20350;-62
2022/09/02 14:23:54;;;;;;;;;;;26.50;41.50;;;;;;4929882;28;19923;-60
2022/09/02 14:26:26;;;;;;;;;;;26.40;42.10;;;;;;4934385;29;19911;-62